createdAt,value
2022-10-05T00:00:00.673Z,94.60
2022-10-05T00:01:00.617Z,94.60
2022-10-05T00:02:00.683Z,94.60
2022-10-05T00:03:00.514Z,94.60
2022-10-05T00:04:00.512Z,94.60
2022-10-05T00:05:00.512Z,94.50
2022-10-05T00:06:00.357Z,94.40
2022-10-05T00:07:00.295Z,94.60
2022-10-05T00:08:00.243Z,94.60
2022-10-05T00:09:00.187Z,94.50
2022-10-05T00:10:00.140Z,94.50
2022-10-05T00:11:00.103Z,94.50
2022-10-05T00:12:00.026Z,94.60
2022-10-05T00:12:59.970Z,94.50
2022-10-05T00:13:59.918Z,94.60
2022-10-05T00:14:59.869Z,94.60
2022-10-05T00:15:59.810Z,94.69
2022-10-05T00:16:59.776Z,94.79
2022-10-05T00:17:59.704Z,94.60
2022-10-05T00:18:59.646Z,94.89
2022-10-05T00:19:59.599Z,94.31
2022-10-05T00:20:59.541Z,94.21
2022-10-05T00:21:59.510Z,94.89
2022-10-05T00:22:59.433Z,94.31
2022-10-05T00:23:59.379Z,94.21
2022-10-05T00:24:59.324Z,94.21
2022-10-05T00:25:59.271Z,94.31
2022-10-05T00:26:59.215Z,94.21
2022-10-05T00:27:59.182Z,94.02
2022-10-05T00:28:59.106Z,94.02
2022-10-05T00:29:59.057Z,94.31
2022-10-05T00:30:59.004Z,94.21
2022-10-05T00:31:58.998Z,94.21
2022-10-05T00:32:59.990Z,94.40
2022-10-05T00:33:58.842Z,94.40
2022-10-05T00:34:58.783Z,94.21
2022-10-05T00:35:58.730Z,94.40
2022-10-05T00:36:58.678Z,94.40
2022-10-05T00:37:58.630Z,94.40
2022-10-05T00:38:58.569Z,94.31
2022-10-05T00:39:58.517Z,94.21
2022-10-05T00:40:58.460Z,94.21
2022-10-05T00:41:58.410Z,94.21
2022-10-05T00:42:58.351Z,94.45
2022-10-05T00:43:58.304Z,94.36
2022-10-05T00:44:58.243Z,94.60
2022-10-05T00:45:58.236Z,94.60
2022-10-05T00:46:58.137Z,94.50
2022-10-05T00:47:58.083Z,94.31
2022-10-05T00:48:58.038Z,94.50
2022-10-05T00:49:57.976Z,94.36
2022-10-05T00:50:57.921Z,94.40
2022-10-05T00:51:57.868Z,94.40
2022-10-05T00:52:57.816Z,94.40
2022-10-05T00:53:57.768Z,94.40
2022-10-05T00:54:57.703Z,94.36
2022-10-05T00:55:57.655Z,94.40
2022-10-05T00:56:57.596Z,94.21
2022-10-05T00:57:57.549Z,94.21
2022-10-05T00:58:57.596Z,94.17
2022-10-05T00:59:57.436Z,94.21
2022-10-05T01:00:57.449Z,94.45
2022-10-05T01:01:57.377Z,94.36
2022-10-05T01:02:57.276Z,94.31
2022-10-05T01:03:57.223Z,94.45
2022-10-05T01:04:57.165Z,94.40
2022-10-05T01:05:57.114Z,94.21
2022-10-05T01:06:57.058Z,94.65
2022-10-05T01:07:57.005Z,94.40
2022-10-05T01:08:56.949Z,93.79
2022-10-05T01:09:56.920Z,93.88
2022-10-05T01:10:56.846Z,94.21
2022-10-05T01:11:56.788Z,94.45
2022-10-05T01:12:56.735Z,94.07
2022-10-05T01:13:56.681Z,94.65
2022-10-05T01:14:56.714Z,94.12
2022-10-05T01:15:56.573Z,93.79
2022-10-05T01:16:56.558Z,93.98
2022-10-05T01:17:56.465Z,94.17
2022-10-05T01:18:56.409Z,94.07
2022-10-05T01:19:56.356Z,93.88
2022-10-05T01:20:56.301Z,93.69
2022-10-05T01:21:56.248Z,94.07
2022-10-05T01:22:56.195Z,94.07
2022-10-05T01:23:56.140Z,93.88
2022-10-05T01:24:56.084Z,93.45
2022-10-05T01:25:56.038Z,93.69
2022-10-05T01:26:55.978Z,93.88
2022-10-05T01:27:55.955Z,93.79
2022-10-05T01:28:55.869Z,93.83
2022-10-05T01:29:55.818Z,93.79
2022-10-05T01:30:55.770Z,93.40
2022-10-05T01:31:55.837Z,93.30
2022-10-05T01:32:55.653Z,93.45
2022-10-05T01:33:55.600Z,93.45
2022-10-05T01:34:55.543Z,93.74
2022-10-05T01:35:55.492Z,93.69
2022-10-05T01:36:55.438Z,93.79
2022-10-05T01:37:55.385Z,93.74
2022-10-05T01:38:55.330Z,93.69
2022-10-05T01:39:55.276Z,93.59
2022-10-05T01:40:55.223Z,93.50
2022-10-05T01:41:55.175Z,93.79
2022-10-05T01:42:55.116Z,93.79
2022-10-05T01:43:55.064Z,93.79
2022-10-05T01:44:55.015Z,93.69
2022-10-05T01:45:55.014Z,93.98
2022-10-05T01:46:54.909Z,93.88
2022-10-05T01:47:54.844Z,93.79
2022-10-05T01:48:54.794Z,93.93
2022-10-05T01:49:54.735Z,93.88
2022-10-05T01:50:54.681Z,93.79
2022-10-05T01:51:54.628Z,93.79
2022-10-05T01:52:54.576Z,93.98
2022-10-05T01:53:54.520Z,93.59
2022-10-05T01:54:54.463Z,94.07
2022-10-05T01:55:54.413Z,93.98
2022-10-05T01:56:54.368Z,93.59
2022-10-05T01:57:54.308Z,93.21
2022-10-05T01:58:54.248Z,93.40
2022-10-05T01:59:54.195Z,93.40
2022-10-05T02:00:54.189Z,93.59
2022-10-05T02:01:54.163Z,93.40
2022-10-05T02:02:54.030Z,93.40
2022-10-05T02:03:53.980Z,93.40
2022-10-05T02:05:01.792Z,93.21
2022-10-05T02:05:53.879Z,93.50
2022-10-05T02:06:53.816Z,93.50
2022-10-05T02:07:53.766Z,93.40
2022-10-05T02:08:53.714Z,93.50
2022-10-05T02:09:53.714Z,93.50
2022-10-05T02:10:53.598Z,93.50
2022-10-05T02:11:53.547Z,93.50
2022-10-05T02:12:53.490Z,93.12
2022-10-05T02:13:53.443Z,93.02
2022-10-05T02:14:53.383Z,93.02
2022-10-05T02:15:53.374Z,93.30
2022-10-05T02:16:53.275Z,93.21
2022-10-05T02:17:53.226Z,93.40
2022-10-05T02:18:53.166Z,93.30
2022-10-05T02:19:53.112Z,93.21
2022-10-05T02:20:53.060Z,93.12
2022-10-05T02:21:53.009Z,93.21
2022-10-05T02:22:52.955Z,93.02
2022-10-05T02:23:52.898Z,92.92
2022-10-05T02:24:52.843Z,92.92
2022-10-05T02:25:52.803Z,92.92
2022-10-05T02:26:52.736Z,92.92
2022-10-05T02:27:52.688Z,93.12
2022-10-05T02:28:52.631Z,93.21
2022-10-05T02:29:52.579Z,92.92
2022-10-05T02:30:52.516Z,93.02
2022-10-05T02:31:52.563Z,92.83
2022-10-05T02:32:52.409Z,93.12
2022-10-05T02:33:52.355Z,92.92
2022-10-05T02:34:52.302Z,93.02
2022-10-05T02:35:52.249Z,92.92
2022-10-05T02:36:52.193Z,93.02
2022-10-05T02:37:52.141Z,93.21
2022-10-05T02:38:52.093Z,93.02
2022-10-05T02:39:52.030Z,92.73
2022-10-05T02:40:51.976Z,92.73
2022-10-05T02:41:51.924Z,92.92
2022-10-05T02:42:51.866Z,92.92
2022-10-05T02:43:51.814Z,92.73
2022-10-05T02:44:51.762Z,92.83
2022-10-05T02:45:51.817Z,92.44
2022-10-05T02:46:56.157Z,92.44
2022-10-05T02:47:51.598Z,92.54
2022-10-05T02:48:51.541Z,92.44
2022-10-05T02:49:51.490Z,92.25
2022-10-05T02:50:51.438Z,92.54
2022-10-05T02:51:51.385Z,92.35
2022-10-05T02:52:51.329Z,92.16
2022-10-05T02:53:51.273Z,92.25
2022-10-05T02:54:51.218Z,92.06
2022-10-05T02:55:51.164Z,92.35
2022-10-05T02:56:51.110Z,92.35
2022-10-05T02:57:52.736Z,92.25
2022-10-05T02:58:51.001Z,92.44
2022-10-05T02:59:50.950Z,92.63
2022-10-05T03:00:50.967Z,91.68
2022-10-05T03:01:50.893Z,92.63
2022-10-05T03:02:50.784Z,91.77
2022-10-05T03:03:50.734Z,91.68
2022-10-05T03:04:50.678Z,92.63
2022-10-05T03:05:50.622Z,92.73
2022-10-05T03:06:50.570Z,91.58
2022-10-05T03:07:50.514Z,92.25
2022-10-05T03:08:50.463Z,92.25
2022-10-05T03:09:50.412Z,92.25
2022-10-05T03:10:50.351Z,92.83
2022-10-05T03:11:50.297Z,92.16
2022-10-05T03:12:50.251Z,91.87
2022-10-05T03:13:50.272Z,92.35
2022-10-05T03:14:50.135Z,92.25
2022-10-05T03:15:50.146Z,91.77
2022-10-05T03:16:50.027Z,91.58
2022-10-05T03:17:49.990Z,91.58
2022-10-05T03:18:50.718Z,91.58
2022-10-05T03:19:49.863Z,91.77
2022-10-05T03:20:49.811Z,91.87
2022-10-05T03:21:49.755Z,91.97
2022-10-05T03:22:49.719Z,91.87
2022-10-05T03:23:49.649Z,91.58
2022-10-05T03:24:49.602Z,91.39
2022-10-05T03:25:49.538Z,91.87
2022-10-05T03:26:49.637Z,91.87
2022-10-05T03:27:49.429Z,92.06
2022-10-05T03:28:49.379Z,91.58
2022-10-05T03:29:49.324Z,92.25
2022-10-05T03:30:49.287Z,90.91
2022-10-05T03:31:49.215Z,90.91
2022-10-05T03:32:49.163Z,91.20
2022-10-05T03:33:49.131Z,91.11
2022-10-05T03:34:49.052Z,91.11
2022-10-05T03:35:48.995Z,91.11
2022-10-05T03:36:49.261Z,91.11
2022-10-05T03:37:48.892Z,91.20
2022-10-05T03:38:48.834Z,91.11
2022-10-05T03:39:48.780Z,91.11
2022-10-05T03:40:48.822Z,91.11
2022-10-05T03:41:53.252Z,91.11
2022-10-05T03:42:48.618Z,91.11
2022-10-05T03:43:48.561Z,91.20
2022-10-05T03:44:48.510Z,91.20
2022-10-05T03:45:48.516Z,91.01
2022-10-05T03:46:48.836Z,91.30
2022-10-05T03:47:48.346Z,91.11
2022-10-05T03:48:53.253Z,91.20
2022-10-05T03:49:48.237Z,91.30
2022-10-05T03:50:48.183Z,91.20
2022-10-05T03:51:48.129Z,91.49
2022-10-05T03:52:48.075Z,91.49
2022-10-05T03:53:48.019Z,91.30
2022-10-05T03:54:52.738Z,91.49
2022-10-05T03:55:47.910Z,90.91
2022-10-05T03:56:48.293Z,91.30
2022-10-05T03:57:47.916Z,91.11
2022-10-05T03:58:47.749Z,91.01
2022-10-05T03:59:47.694Z,91.01
2022-10-05T04:00:47.641Z,91.11
2022-10-05T04:01:47.642Z,91.30
2022-10-05T04:02:47.580Z,91.39
2022-10-05T04:03:47.477Z,91.20
2022-10-05T04:04:47.532Z,91.30
2022-10-05T04:05:47.371Z,90.82
2022-10-05T04:06:47.652Z,91.39
2022-10-05T04:07:47.261Z,90.72
2022-10-05T04:08:48.220Z,90.63
2022-10-05T04:09:47.153Z,90.63
2022-10-05T04:10:47.099Z,91.01
2022-10-05T04:11:47.049Z,90.91
2022-10-05T04:12:46.994Z,90.91
2022-10-05T04:13:46.937Z,90.91
2022-10-05T04:14:46.883Z,91.01
2022-10-05T04:15:46.852Z,90.91
2022-10-05T04:16:47.102Z,91.01
2022-10-05T04:17:46.720Z,91.11
2022-10-05T04:18:46.664Z,90.82
2022-10-05T04:19:46.611Z,91.11
2022-10-05T04:20:46.564Z,91.11
2022-10-05T04:21:46.504Z,90.53
2022-10-05T04:22:46.449Z,90.91
2022-10-05T04:23:46.394Z,90.91
2022-10-05T04:24:46.339Z,90.24
2022-10-05T04:25:46.284Z,90.44
2022-10-05T04:26:46.670Z,90.34
2022-10-05T04:27:46.178Z,90.39
2022-10-05T04:28:46.262Z,90.34
2022-10-05T04:29:46.065Z,90.34
2022-10-05T04:30:46.015Z,90.44
2022-10-05T04:31:46.047Z,90.48
2022-10-05T04:32:45.906Z,90.63
2022-10-05T04:33:45.849Z,90.53
2022-10-05T04:34:45.796Z,90.30
2022-10-05T04:35:45.740Z,90.30
2022-10-05T04:36:46.136Z,90.20
2022-10-05T04:37:46.615Z,90.58
2022-10-05T04:38:45.577Z,90.58
2022-10-05T04:39:45.522Z,90.53
2022-10-05T04:40:45.471Z,90.63
2022-10-05T04:41:45.414Z,90.58
2022-10-05T04:42:45.380Z,90.91
2022-10-05T04:43:45.306Z,90.05
2022-10-05T04:44:45.253Z,90.05
2022-10-05T04:45:45.197Z,89.91
2022-10-05T04:46:45.626Z,89.91
2022-10-05T04:47:45.196Z,90.20
2022-10-05T04:48:45.034Z,90.20
2022-10-05T04:49:44.981Z,89.91
2022-10-05T04:50:44.926Z,90.01
2022-10-05T04:51:47.724Z,89.91
2022-10-05T04:52:44.826Z,89.58
2022-10-05T04:53:44.763Z,90.01
2022-10-05T04:54:44.708Z,89.62
2022-10-05T04:55:45.241Z,90.01
2022-10-05T04:56:45.065Z,89.86
2022-10-05T04:57:44.545Z,89.81
2022-10-05T04:58:44.490Z,90.05
2022-10-05T04:59:44.435Z,89.62
2022-10-05T05:00:44.452Z,89.91
2022-10-05T05:01:44.327Z,89.91
2022-10-05T05:02:44.274Z,90.10
2022-10-05T05:03:44.266Z,90.10
2022-10-05T05:04:47.167Z,90.10
2022-10-05T05:06:05.002Z,90.10
2022-10-05T05:06:44.260Z,90.01
2022-10-05T05:07:44.007Z,89.91
2022-10-05T05:08:43.954Z,89.72
2022-10-05T05:09:43.894Z,89.81
2022-10-05T05:10:43.839Z,89.91
2022-10-05T05:11:43.783Z,89.81
2022-10-05T05:12:43.731Z,89.91
2022-10-05T05:13:43.674Z,89.81
2022-10-05T05:14:43.622Z,89.72
2022-10-05T05:15:43.627Z,90.01
2022-10-05T05:16:43.736Z,90.01
2022-10-05T05:17:43.457Z,90.10
2022-10-05T05:18:43.404Z,90.10
2022-10-05T05:19:43.348Z,90.01
2022-10-05T05:20:43.325Z,89.81
2022-10-05T05:21:43.240Z,89.81
2022-10-05T05:22:43.186Z,89.81
2022-10-05T05:23:43.132Z,89.62
2022-10-05T05:24:43.086Z,89.91
2022-10-05T05:25:43.026Z,89.34
2022-10-05T05:26:42.967Z,89.53
2022-10-05T05:27:42.912Z,89.53
2022-10-05T05:28:42.860Z,90.10
2022-10-05T05:29:42.803Z,90.30
2022-10-05T05:30:42.751Z,89.81
2022-10-05T05:31:42.730Z,89.72
2022-10-05T05:32:42.642Z,89.91
2022-10-05T05:33:42.585Z,89.91
2022-10-05T05:34:42.533Z,90.01
2022-10-05T05:35:42.477Z,89.34
2022-10-05T05:36:42.425Z,89.81
2022-10-05T05:37:42.369Z,89.72
2022-10-05T05:38:42.314Z,89.91
2022-10-05T05:39:42.258Z,89.91
2022-10-05T05:40:42.222Z,89.72
2022-10-05T05:41:42.153Z,89.72
2022-10-05T05:42:42.098Z,89.43
2022-10-05T05:43:42.043Z,89.62
2022-10-05T05:44:41.990Z,89.62
2022-10-05T05:45:41.941Z,89.81
2022-10-05T05:47:05.461Z,89.53
2022-10-05T05:47:41.863Z,89.05
2022-10-05T05:48:41.772Z,89.91
2022-10-05T05:49:41.715Z,89.34
2022-10-05T05:50:41.667Z,88.95
2022-10-05T05:51:41.605Z,89.72
2022-10-05T05:52:41.552Z,89.15
2022-10-05T05:53:41.497Z,89.43
2022-10-05T05:54:41.444Z,89.43
2022-10-05T05:55:41.389Z,89.43
2022-10-05T05:56:41.389Z,89.34
2022-10-05T05:57:41.278Z,89.72
2022-10-05T05:58:41.229Z,89.43
2022-10-05T05:59:41.169Z,89.24
2022-10-05T06:00:41.125Z,89.34
2022-10-05T06:01:44.471Z,89.34
2022-10-05T06:02:41.143Z,89.43
2022-10-05T06:03:40.951Z,89.34
2022-10-05T06:04:40.900Z,89.53
2022-10-05T06:05:40.850Z,89.34
2022-10-05T06:06:40.789Z,89.43
2022-10-05T06:07:40.735Z,89.34
2022-10-05T06:08:40.680Z,89.24
2022-10-05T06:09:40.625Z,89.43
2022-10-05T06:10:40.575Z,89.43
2022-10-05T06:11:40.516Z,89.53
2022-10-05T06:12:40.466Z,89.53
2022-10-05T06:13:40.407Z,89.34
2022-10-05T06:14:40.354Z,89.72
2022-10-05T06:15:40.298Z,89.62
2022-10-05T06:16:40.273Z,89.72
2022-10-05T06:17:40.189Z,89.72
2022-10-05T06:18:40.135Z,89.72
2022-10-05T06:19:40.078Z,89.34
2022-10-05T06:20:40.028Z,89.81
2022-10-05T06:21:39.970Z,89.53
2022-10-05T06:22:39.919Z,89.72
2022-10-05T06:23:39.862Z,89.72
2022-10-05T06:24:39.809Z,89.62
2022-10-05T06:25:39.754Z,89.62
2022-10-05T06:26:39.706Z,89.34
2022-10-05T06:27:39.643Z,89.53
2022-10-05T06:28:39.765Z,89.05
2022-10-05T06:29:39.535Z,88.86
2022-10-05T06:30:39.566Z,89.05
2022-10-05T06:31:39.497Z,89.43
2022-10-05T06:32:39.373Z,89.05
2022-10-05T06:33:39.315Z,89.72
2022-10-05T06:34:39.266Z,89.15
2022-10-05T06:35:39.246Z,89.53
2022-10-05T06:36:39.153Z,89.05
2022-10-05T06:37:39.099Z,88.76
2022-10-05T06:38:39.045Z,88.95
2022-10-05T06:39:38.992Z,89.05
2022-10-05T06:40:38.938Z,89.05
2022-10-05T06:41:38.880Z,89.43
2022-10-05T06:42:38.932Z,89.62
2022-10-05T06:43:38.770Z,89.05
2022-10-05T06:44:38.729Z,89.34
2022-10-05T06:45:38.761Z,88.95
2022-10-05T06:46:38.609Z,89.81
2022-10-05T06:47:38.554Z,89.72
2022-10-05T06:48:38.500Z,89.72
2022-10-05T06:49:38.446Z,88.95
2022-10-05T06:50:38.405Z,89.34
2022-10-05T06:51:38.347Z,89.72
2022-10-05T06:52:38.286Z,89.34
2022-10-05T06:53:38.232Z,89.43
2022-10-05T06:54:38.171Z,89.43
2022-10-05T06:55:38.117Z,89.34
2022-10-05T06:56:38.086Z,89.53
2022-10-05T06:57:38.023Z,89.34
2022-10-05T06:58:38.030Z,89.15
2022-10-05T06:59:37.902Z,89.53
2022-10-05T07:00:37.849Z,89.53
2022-10-05T07:01:37.964Z,89.24
2022-10-05T07:02:37.754Z,89.24
2022-10-05T07:03:37.681Z,89.34
2022-10-05T07:04:37.624Z,89.34
2022-10-05T07:05:37.585Z,89.24
2022-10-05T07:06:37.513Z,89.15
2022-10-05T07:07:37.467Z,89.53
2022-10-05T07:08:37.435Z,89.15
2022-10-05T07:09:37.356Z,89.34
2022-10-05T07:10:37.303Z,89.34
2022-10-05T07:11:37.252Z,89.43
2022-10-05T07:12:37.193Z,89.43
2022-10-05T07:13:37.134Z,89.43
2022-10-05T07:14:37.078Z,89.43
2022-10-05T07:15:37.026Z,89.53
2022-10-05T07:16:37.049Z,89.34
2022-10-05T07:17:36.921Z,89.62
2022-10-05T07:18:36.859Z,89.81
2022-10-05T07:19:36.808Z,89.72
2022-10-05T07:20:36.751Z,89.81
2022-10-05T07:21:36.700Z,89.91
2022-10-05T07:22:36.642Z,89.91
2022-10-05T07:23:36.588Z,89.81
2022-10-05T07:24:36.538Z,89.81
2022-10-05T07:25:36.482Z,89.53
2022-10-05T07:26:36.423Z,89.62
2022-10-05T07:27:36.371Z,89.91
2022-10-05T07:28:36.352Z,89.91
2022-10-05T07:29:36.261Z,89.43
2022-10-05T07:30:36.221Z,89.72
2022-10-05T07:31:36.170Z,90.01
2022-10-05T07:32:36.119Z,89.91
2022-10-05T07:33:36.048Z,89.91
2022-10-05T07:34:35.997Z,90.10
2022-10-05T07:35:35.936Z,90.01
2022-10-05T07:36:35.878Z,89.53
2022-10-05T07:37:35.826Z,89.91
2022-10-05T07:38:35.771Z,89.43
2022-10-05T07:39:58.526Z,89.53
2022-10-05T07:40:35.672Z,90.10
2022-10-05T07:41:35.610Z,90.30
2022-10-05T07:42:39.961Z,89.72
2022-10-05T07:43:57.895Z,89.91
2022-10-05T07:44:35.442Z,90.01
2022-10-05T07:45:35.412Z,90.01
2022-10-05T07:46:35.334Z,90.01
2022-10-05T07:47:35.280Z,90.01
2022-10-05T07:48:35.230Z,90.10
2022-10-05T07:49:35.174Z,89.81
2022-10-05T07:50:35.116Z,89.81
2022-10-05T07:51:35.065Z,90.01
2022-10-05T07:52:35.177Z,89.81
2022-10-05T07:53:34.956Z,89.91
2022-10-05T07:54:34.898Z,89.81
2022-10-05T07:55:34.841Z,89.81
2022-10-05T07:56:34.787Z,89.81
2022-10-05T07:57:34.733Z,89.81
2022-10-05T07:58:34.679Z,90.10
2022-10-05T07:59:34.625Z,90.01
2022-10-05T08:00:34.568Z,89.91
2022-10-05T08:01:34.561Z,89.72
2022-10-05T08:02:34.603Z,89.91
2022-10-05T08:03:34.412Z,89.62
2022-10-05T08:04:37.024Z,89.81
2022-10-05T08:05:34.311Z,89.91
2022-10-05T08:06:34.242Z,89.91
2022-10-05T08:07:34.189Z,90.01
2022-10-05T08:08:34.134Z,89.72
2022-10-05T08:09:34.081Z,90.10
2022-10-05T08:10:34.022Z,90.10
2022-10-05T08:11:33.969Z,90.01
2022-10-05T08:12:33.914Z,90.01
2022-10-05T08:13:33.862Z,90.30
2022-10-05T08:14:33.831Z,90.48
2022-10-05T08:15:33.813Z,90.39
2022-10-05T08:16:33.695Z,90.87
2022-10-05T08:17:33.643Z,90.58
2022-10-05T08:18:33.586Z,90.48
2022-10-05T08:19:33.534Z,90.39
2022-10-05T08:20:33.589Z,90.20
2022-10-05T08:21:33.426Z,90.39
2022-10-05T08:22:33.367Z,90.39
2022-10-05T08:23:33.319Z,90.48
2022-10-05T08:24:33.259Z,90.30
2022-10-05T08:25:33.209Z,90.20
2022-10-05T08:26:33.148Z,90.30
2022-10-05T08:27:33.098Z,90.30
2022-10-05T08:28:33.087Z,90.20
2022-10-05T08:29:32.989Z,89.91
2022-10-05T08:30:32.941Z,90.48
2022-10-05T08:31:32.949Z,89.91
2022-10-05T08:32:32.827Z,90.10
2022-10-05T08:33:32.768Z,90.01
2022-10-05T08:34:32.712Z,91.06
2022-10-05T08:35:32.662Z,90.77
2022-10-05T08:36:32.609Z,90.30
2022-10-05T08:37:32.556Z,90.87
2022-10-05T08:38:32.494Z,90.77
2022-10-05T08:39:32.440Z,90.87
2022-10-05T08:40:32.385Z,90.96
2022-10-05T08:41:32.335Z,90.96
2022-10-05T08:42:32.277Z,90.96
2022-10-05T08:43:35.270Z,90.58
2022-10-05T08:44:32.168Z,91.16
2022-10-05T08:45:32.122Z,91.25
2022-10-05T08:46:32.093Z,91.35
2022-10-05T08:47:32.029Z,91.25
2022-10-05T08:48:31.973Z,91.25
2022-10-05T08:49:35.212Z,91.35
2022-10-05T08:50:31.840Z,90.87
2022-10-05T08:51:31.793Z,91.35
2022-10-05T08:52:31.744Z,91.16
2022-10-05T08:53:31.735Z,91.16
2022-10-05T08:54:31.624Z,91.11
2022-10-05T08:55:31.568Z,91.25
2022-10-05T08:56:31.517Z,91.16
2022-10-05T08:57:31.463Z,91.39
2022-10-05T08:58:31.404Z,91.01
2022-10-05T08:59:31.352Z,91.06
2022-10-05T09:00:31.296Z,91.30
2022-10-05T09:01:31.276Z,91.06
2022-10-05T09:02:31.205Z,91.06
2022-10-05T09:03:34.413Z,91.49
2022-10-05T09:04:31.078Z,91.25
2022-10-05T09:05:31.027Z,91.25
2022-10-05T09:06:30.967Z,91.30
2022-10-05T09:07:30.915Z,91.25
2022-10-05T09:08:30.864Z,91.11
2022-10-05T09:09:30.806Z,91.06
2022-10-05T09:10:30.754Z,91.11
2022-10-05T09:11:30.697Z,91.11
2022-10-05T09:12:30.645Z,91.06
2022-10-05T09:13:30.595Z,91.11
2022-10-05T09:14:30.531Z,90.96
2022-10-05T09:15:30.480Z,91.30
2022-10-05T09:16:30.424Z,91.11
2022-10-05T09:17:30.373Z,91.11
2022-10-05T09:18:30.316Z,91.11
2022-10-05T09:19:30.270Z,91.11
2022-10-05T09:20:30.225Z,91.20
2022-10-05T09:21:30.153Z,90.91
2022-10-05T09:22:32.812Z,91.11
2022-10-05T09:23:30.044Z,91.20
2022-10-05T09:24:29.997Z,90.91
2022-10-05T09:25:29.935Z,91.58
2022-10-05T09:26:29.877Z,91.30
2022-10-05T09:27:29.824Z,91.30
2022-10-05T09:28:29.836Z,91.68
2022-10-05T09:29:29.716Z,91.58
2022-10-05T09:30:29.661Z,91.58
2022-10-05T09:31:29.640Z,91.01
2022-10-05T09:32:29.555Z,91.20
2022-10-05T09:33:29.505Z,91.11
2022-10-05T09:34:29.442Z,91.20
2022-10-05T09:35:29.389Z,91.20
2022-10-05T09:36:29.334Z,91.58
2022-10-05T09:37:29.284Z,91.97
2022-10-05T09:38:29.227Z,92.25
2022-10-05T09:39:29.172Z,92.25
2022-10-05T09:40:29.156Z,91.77
2022-10-05T09:41:29.068Z,91.87
2022-10-05T09:42:29.007Z,91.49
2022-10-05T09:43:28.960Z,91.49
2022-10-05T09:44:28.898Z,91.39
2022-10-05T09:45:28.845Z,91.39
2022-10-05T09:46:28.819Z,91.97
2022-10-05T09:47:28.739Z,91.39
2022-10-05T09:48:28.683Z,92.16
2022-10-05T09:49:28.629Z,91.58
2022-10-05T09:50:28.573Z,92.16
2022-10-05T09:51:28.517Z,92.06
2022-10-05T09:52:28.474Z,92.44
2022-10-05T09:53:28.408Z,92.25
2022-10-05T09:54:28.355Z,92.25
2022-10-05T09:55:28.319Z,91.58
2022-10-05T09:57:28.199Z,91.68
2022-10-05T09:58:28.142Z,92.06
2022-10-05T09:59:28.082Z,91.97
2022-10-05T10:00:28.032Z,92.06
2022-10-05T10:01:35.429Z,91.68
2022-10-05T10:02:27.968Z,91.87
2022-10-05T10:03:27.920Z,91.97
2022-10-05T10:04:27.813Z,92.06
2022-10-05T10:05:27.755Z,91.68
2022-10-05T10:06:27.701Z,91.87
2022-10-05T10:07:27.649Z,91.87
2022-10-05T10:08:27.594Z,91.49
2022-10-05T10:09:27.538Z,91.68
2022-10-05T10:10:27.484Z,91.49
2022-10-05T10:11:27.429Z,91.58
2022-10-05T10:12:27.383Z,91.77
2022-10-05T10:13:27.326Z,92.16
2022-10-05T10:14:27.266Z,92.25
2022-10-05T10:15:27.212Z,92.16
2022-10-05T10:16:27.203Z,92.25
2022-10-05T10:17:27.104Z,91.58
2022-10-05T10:18:27.052Z,91.58
2022-10-05T10:19:26.994Z,91.87
2022-10-05T10:20:26.942Z,92.16
2022-10-05T10:21:26.887Z,92.44
2022-10-05T10:22:26.834Z,92.25
2022-10-05T10:23:26.779Z,91.97
2022-10-05T10:24:26.727Z,91.97
2022-10-05T10:25:26.675Z,91.77
2022-10-05T10:26:26.616Z,91.68
2022-10-05T10:27:26.569Z,92.25
2022-10-05T10:28:26.605Z,91.97
2022-10-05T10:30:27.727Z,91.77
2022-10-05T10:31:26.366Z,91.39
2022-10-05T10:32:26.289Z,91.58
2022-10-05T10:33:26.234Z,91.63
2022-10-05T10:34:26.183Z,91.58
2022-10-05T10:35:26.205Z,91.53
2022-10-05T10:36:26.072Z,91.72
2022-10-05T10:37:26.018Z,91.72
2022-10-05T10:38:25.965Z,91.63
2022-10-05T10:39:25.913Z,91.53
2022-10-05T10:40:25.855Z,91.63
2022-10-05T10:41:25.800Z,91.53
2022-10-05T10:42:26.266Z,91.34
2022-10-05T10:43:25.691Z,91.34
2022-10-05T10:44:25.648Z,91.25
2022-10-05T10:45:25.583Z,91.77
2022-10-05T10:46:25.593Z,91.63
2022-10-05T10:47:25.474Z,91.63
2022-10-05T10:48:25.497Z,91.53
2022-10-05T10:49:25.369Z,91.53
2022-10-05T10:50:25.316Z,91.53
2022-10-05T10:51:25.256Z,91.72
2022-10-05T10:52:25.205Z,91.53
2022-10-05T10:53:25.153Z,91.63
2022-10-05T10:54:25.097Z,93.35
2022-10-05T10:55:25.044Z,93.83
2022-10-05T10:56:24.988Z,94.98
2022-10-05T10:57:24.933Z,95.84
2022-10-05T10:58:24.918Z,96.89
2022-10-05T10:59:27.853Z,97.75
2022-10-05T11:00:24.800Z,98.71
2022-10-05T11:01:24.763Z,99.67
2022-10-05T11:02:24.728Z,99.99
2022-10-05T11:03:24.624Z,99.99
2022-10-05T11:04:24.554Z,99.99
2022-10-05T11:05:24.507Z,99.99
2022-10-05T11:06:24.446Z,99.99
2022-10-05T11:07:24.451Z,99.99
2022-10-05T11:08:24.341Z,99.99
2022-10-05T11:09:24.287Z,99.99
2022-10-05T11:10:24.233Z,99.99
2022-10-05T11:11:24.180Z,99.99
2022-10-05T11:12:24.120Z,99.99
2022-10-05T11:13:24.065Z,99.99
2022-10-05T11:14:24.014Z,99.99
2022-10-05T11:15:23.958Z,99.99
2022-10-05T11:16:23.909Z,99.99
2022-10-05T11:17:23.851Z,99.99
2022-10-05T11:18:23.801Z,99.99
2022-10-05T11:19:35.040Z,99.99
2022-10-05T11:20:23.694Z,99.99
2022-10-05T11:21:23.635Z,99.99
2022-10-05T11:22:23.580Z,99.99
2022-10-05T11:23:23.526Z,99.99
2022-10-05T11:24:23.488Z,99.99
2022-10-05T11:25:23.419Z,99.99
2022-10-05T11:26:23.377Z,99.99
2022-10-05T11:27:23.313Z,99.99
2022-10-05T11:28:23.289Z,99.99
2022-10-05T11:29:23.203Z,99.99
2022-10-05T11:30:23.152Z,99.99
2022-10-05T11:31:23.171Z,99.99
2022-10-05T11:32:23.153Z,99.99
2022-10-05T11:33:22.987Z,99.99
2022-10-05T11:34:22.936Z,99.99
2022-10-05T11:35:22.879Z,99.99
2022-10-05T11:36:22.829Z,99.99
2022-10-05T11:37:22.771Z,99.99
2022-10-05T11:38:22.721Z,99.99
2022-10-05T11:39:22.664Z,99.99
2022-10-05T11:40:22.613Z,99.99
2022-10-05T11:41:22.559Z,99.99
2022-10-05T11:42:22.503Z,99.99
2022-10-05T11:43:22.449Z,99.99
2022-10-05T11:44:22.399Z,99.99
2022-10-05T11:45:22.347Z,99.99
2022-10-05T11:46:22.418Z,99.99
2022-10-05T11:47:22.234Z,99.99
2022-10-05T11:48:22.188Z,99.99
2022-10-05T11:49:22.136Z,99.99
2022-10-05T11:50:22.075Z,99.99
2022-10-05T11:51:25.199Z,99.99
2022-10-05T11:52:21.968Z,99.99
2022-10-05T11:53:21.913Z,99.99
2022-10-05T11:54:21.861Z,99.99
2022-10-05T11:55:21.808Z,99.99
2022-10-05T11:56:21.848Z,99.99
2022-10-05T11:57:21.701Z,99.99
2022-10-05T11:58:21.677Z,99.99
2022-10-05T11:59:21.593Z,99.99
2022-10-05T12:00:21.540Z,99.99
2022-10-05T12:01:21.488Z,99.99
2022-10-05T12:02:21.438Z,99.99
2022-10-05T12:03:21.497Z,99.99
2022-10-05T12:04:21.335Z,99.99
2022-10-05T12:05:21.278Z,99.99
2022-10-05T12:06:21.221Z,99.99
2022-10-05T12:07:21.165Z,99.99
2022-10-05T12:08:21.115Z,99.99
2022-10-05T12:09:21.059Z,99.99
2022-10-05T12:10:21.012Z,99.99
2022-10-05T12:11:20.953Z,99.99
2022-10-05T12:12:20.908Z,99.99
2022-10-05T12:13:20.846Z,99.99
2022-10-05T12:14:20.795Z,99.99
2022-10-05T12:15:20.744Z,99.99
2022-10-05T12:16:20.730Z,99.99
2022-10-05T12:17:20.633Z,99.99
2022-10-05T12:18:20.581Z,99.99
2022-10-05T12:19:20.528Z,99.99
2022-10-05T12:20:20.482Z,99.99
2022-10-05T12:21:20.421Z,99.99
2022-10-05T12:22:20.369Z,99.99
2022-10-05T12:23:20.314Z,99.99
2022-10-05T12:24:23.379Z,99.99
2022-10-05T12:25:20.209Z,99.99
2022-10-05T12:26:20.157Z,99.99
2022-10-05T12:27:20.103Z,99.99
2022-10-05T12:28:20.138Z,99.99
2022-10-05T12:29:20.002Z,99.99
2022-10-05T12:30:19.944Z,99.99
2022-10-05T12:31:19.938Z,99.99
2022-10-05T12:32:19.841Z,99.99
2022-10-05T12:33:19.786Z,99.99
2022-10-05T12:34:19.731Z,99.99
2022-10-05T12:35:43.638Z,99.99
2022-10-05T12:36:19.635Z,99.99
2022-10-05T12:37:19.576Z,99.99
2022-10-05T12:38:19.520Z,99.99
2022-10-05T12:39:19.467Z,99.99
2022-10-05T12:40:19.415Z,99.99
2022-10-05T12:41:19.361Z,99.99
2022-10-05T12:42:19.308Z,99.99
2022-10-05T12:43:19.256Z,99.99
2022-10-05T12:44:19.204Z,99.99
2022-10-05T12:45:19.150Z,99.99
2022-10-05T12:46:19.099Z,99.99
2022-10-05T12:47:19.042Z,99.99
2022-10-05T12:48:18.994Z,99.99
2022-10-05T12:49:18.937Z,99.99
2022-10-05T12:50:18.886Z,99.99
2022-10-05T12:51:18.853Z,99.99
2022-10-05T12:52:18.793Z,99.99
2022-10-05T12:53:18.728Z,99.99